Grey Lady — WDC9414 — position and weather

sailwx.info

Track history (hours):
 
Tides and Currents Weather Stations Pressure Air Temp Water Temp Dewpoint Dewpoint Depression Visibility Wind Speed Wind Dir Waves Ship Positions

Grey Lady

Owner: HYANNIS HARBOR TOURS INC, HYANNIS, MA. More information available from US FCC via Universal Licensing System and Coast Guard Vessel Documentation Center.

Last reported at 2017-Nov-19 23:15 UTC. Time now 2017-Nov-24 09:46 UTC.
Position N 41°39' W 070°17'.

Length 44 m; draft 2 m.

Type: High speed craft. MMSI: 367101920.

Date/timePositionNaut miles runAvg speedWind from/ knotsBaromVisibWave heightAir tempDewpointWater temp
2017-Nov-19 23:15N 41°39' W 070°17'0 0.0
2017-Nov-19 23:00N 41°39' W 070°17'0 0.0
2017-Nov-19 22:30N 41°39' W 070°17'0 0.0
2017-Nov-19 22:00N 41°39' W 070°17'0 0.0
2017-Nov-19 21:30N 41°39' W 070°17'0 0.0
2017-Nov-19 21:00N 41°39' W 070°17'0 0.0
2017-Nov-19 20:30N 41°39' W 070°17'0 0.0
2017-Nov-19 20:00N 41°39' W 070°17'0 0.0
2017-Nov-19 19:30N 41°39' W 070°17'0 0.0
2017-Nov-19 19:00N 41°39' W 070°17'0 0.0
2017-Nov-19 18:30N 41°39' W 070°17'0 0.0
2017-Nov-19 18:00N 41°39' W 070°17'0 0.0
2017-Nov-19 17:29N 41°39' W 070°17'0 0.0
2017-Nov-19 17:00N 41°39' W 070°17'0 0.1
2017-Nov-19 16:30N 41°39' W 070°17'5 2.4
2017-Nov-19 14:28N 41°34' W 070°18'510.6
2017-Nov-19 14:00N 41°39' W 070°17'2 3.5
2017-Nov-19 13:31N 41°37' W 070°17'3 1.6
2017-Nov-19 11:33N 41°34' W 070°18'130.1
2017-Nov-19 11:30N 41°35' W 070°18'4 0.1
2017-Nov-18 02:21N 41°39' W 070°17'6 3.0
2017-Nov-18 00:23N 41°33' W 070°16'615.6
2017-Nov-18 00:00N 41°39' W 070°17'0 0.0
2017-Nov-17 23:30N 41°39' W 070°17'0 0.0
2017-Nov-17 23:00N 41°39' W 070°17'2 3.1
2017-Nov-17 22:31N 41°37' W 070°17'5 2.6
2017-Nov-17 20:34N 41°32' W 070°16'231.3
2017-Nov-17 20:30N 41°34' W 070°17'5 9.7
2017-Nov-17 20:00N 41°39' W 070°17'5 0.6
2017-Nov-17 11:34N 41°34' W 070°16'232.1
2017-Nov-17 11:30N 41°36' W 070°17'  
Track history (hours):
 
Tides and Currents Weather Stations Pressure Air Temp Water Temp Dewpoint Dewpoint Depression Visibility Wind Speed Wind Dir Waves Ship Positions

Grey Lady

Owner: HYANNIS HARBOR TOURS INC, HYANNIS, MA. More information available from US FCC via Universal Licensing System and Coast Guard Vessel Documentation Center.

Last reported at 2017-Nov-19 23:15 UTC. Time now 2017-Nov-24 09:46 UTC.
Position N 41°39' W 070°17'.

Length 44 m; draft 2 m.

Type: High speed craft. MMSI: 367101920.

Date/timePositionNaut miles runAvg speedWind from/ knotsBaromVisibWave heightAir tempDewpointWater temp
2017-Nov-19 23:15N 41°39' W 070°17'0 0.0
2017-Nov-19 23:00N 41°39' W 070°17'0 0.0
2017-Nov-19 22:30N 41°39' W 070°17'0 0.0
2017-Nov-19 22:00N 41°39' W 070°17'0 0.0
2017-Nov-19 21:30N 41°39' W 070°17'0 0.0
2017-Nov-19 21:00N 41°39' W 070°17'0 0.0
2017-Nov-19 20:30N 41°39' W 070°17'0 0.0
2017-Nov-19 20:00N 41°39' W 070°17'0 0.0
2017-Nov-19 19:30N 41°39' W 070°17'0 0.0
2017-Nov-19 19:00N 41°39' W 070°17'0 0.0
2017-Nov-19 18:30N 41°39' W 070°17'0 0.0
2017-Nov-19 18:00N 41°39' W 070°17'0 0.0
2017-Nov-19 17:29N 41°39' W 070°17'0 0.0
2017-Nov-19 17:00N 41°39' W 070°17'0 0.1
2017-Nov-19 16:30N 41°39' W 070°17'5 2.4
2017-Nov-19 14:28N 41°34' W 070°18'510.6
2017-Nov-19 14:00N 41°39' W 070°17'2 3.5
2017-Nov-19 13:31N 41°37' W 070°17'3 1.6
2017-Nov-19 11:33N 41°34' W 070°18'130.1
2017-Nov-19 11:30N 41°35' W 070°18'4 0.1
2017-Nov-18 02:21N 41°39' W 070°17'6 3.0
2017-Nov-18 00:23N 41°33' W 070°16'615.6
2017-Nov-18 00:00N 41°39' W 070°17'0 0.0
2017-Nov-17 23:30N 41°39' W 070°17'0 0.0
2017-Nov-17 23:00N 41°39' W 070°17'2 3.1
2017-Nov-17 22:31N 41°37' W 070°17'5 2.6
2017-Nov-17 20:34N 41°32' W 070°16'231.3
2017-Nov-17 20:30N 41°34' W 070°17'5 9.7
2017-Nov-17 20:00N 41°39' W 070°17'5 0.6
2017-Nov-17 11:34N 41°34' W 070°16'232.1
2017-Nov-17 11:30N 41°36' W 070°17'  

Dump ship's entire track history